sensor_id;sensor_type;location;lat;lon;timestamp;temperature;humidity
34644;DHT22;26931;43.498;-1.506;2022-11-15T00:00:10;15.00;95.30
34644;DHT22;26931;43.498;-1.506;2022-11-15T00:02:36;15.00;95.30
34644;DHT22;26931;43.498;-1.506;2022-11-15T00:05:02;15.00;95.40
34644;DHT22;26931;43.498;-1.506;2022-11-15T00:07:28;15.00;95.40
34644;DHT22;26931;43.498;-1.506;2022-11-15T00:09:54;15.00;95.40
34644;DHT22;26931;43.498;-1.506;2022-11-15T00:12:20;15.00;95.40
34644;DHT22;26931;43.498;-1.506;2022-11-15T00:14:46;15.00;95.40
34644;DHT22;26931;43.498;-1.506;2022-11-15T00:17:12;15.00;95.40
34644;DHT22;26931;43.498;-1.506;2022-11-15T00:19:37;14.90;95.50
34644;DHT22;26931;43.498;-1.506;2022-11-15T00:22:03;15.00;95.50
34644;DHT22;26931;43.498;-1.506;2022-11-15T00:24:29;14.90;95.50
34644;DHT22;26931;43.498;-1.506;2022-11-15T00:26:55;14.90;95.50
34644;DHT22;26931;43.498;-1.506;2022-11-15T00:29:21;15.00;95.50
34644;DHT22;26931;43.498;-1.506;2022-11-15T00:31:47;14.90;95.50
34644;DHT22;26931;43.498;-1.506;2022-11-15T00:34:12;14.90;95.50
34644;DHT22;26931;43.498;-1.506;2022-11-15T00:36:39;14.90;95.40
34644;DHT22;26931;43.498;-1.506;2022-11-15T00:39:05;15.00;95.50
34644;DHT22;26931;43.498;-1.506;2022-11-15T00:41:31;14.90;95.50
34644;DHT22;26931;43.498;-1.506;2022-11-15T00:43:57;14.90;95.40
34644;DHT22;26931;43.498;-1.506;2022-11-15T00:46:22;14.80;95.50
34644;DHT22;26931;43.498;-1.506;2022-11-15T00:48:48;14.80;95.50
34644;DHT22;26931;43.498;-1.506;2022-11-15T00:51:14;14.90;95.60
34644;DHT22;26931;43.498;-1.506;2022-11-15T00:53:39;14.80;95.60
34644;DHT22;26931;43.498;-1.506;2022-11-15T00:56:05;14.80;95.60
34644;DHT22;26931;43.498;-1.506;2022-11-15T00:58:31;14.80;95.70
34644;DHT22;26931;43.498;-1.506;2022-11-15T01:01:11;14.70;95.60
34644;DHT22;26931;43.498;-1.506;2022-11-15T01:03:38;14.80;95.70
34644;DHT22;26931;43.498;-1.506;2022-11-15T01:06:05;14.80;95.70
34644;DHT22;26931;43.498;-1.506;2022-11-15T01:08:31;14.80;95.70
34644;DHT22;26931;43.498;-1.506;2022-11-15T01:11:05;14.80;95.70
34644;DHT22;26931;43.498;-1.506;2022-11-15T01:13:33;14.70;95.70
34644;DHT22;26931;43.498;-1.506;2022-11-15T01:16:08;14.70;95.70
34644;DHT22;26931;43.498;-1.506;2022-11-15T01:18:34;14.70;95.70
34644;DHT22;26931;43.498;-1.506;2022-11-15T01:21:00;14.70;95.60
34644;DHT22;26931;43.498;-1.506;2022-11-15T01:23:29;14.70;95.70
34644;DHT22;26931;43.498;-1.506;2022-11-15T01:25:59;14.70;95.60
34644;DHT22;26931;43.498;-1.506;2022-11-15T01:28:26;14.70;95.70
34644;DHT22;26931;43.498;-1.506;2022-11-15T01:30:58;14.70;95.70
34644;DHT22;26931;43.498;-1.506;2022-11-15T01:33:23;14.70;95.70
34644;DHT22;26931;43.498;-1.506;2022-11-15T01:35:49;14.70;95.70
34644;DHT22;26931;43.498;-1.506;2022-11-15T01:38:15;14.70;95.80
34644;DHT22;26931;43.498;-1.506;2022-11-15T01:40:40;14.60;95.70
34644;DHT22;26931;43.498;-1.506;2022-11-15T01:43:21;14.70;95.70
34644;DHT22;26931;43.498;-1.506;2022-11-15T01:45:51;14.70;95.90
34644;DHT22;26931;43.498;-1.506;2022-11-15T01:48:20;14.70;95.90
34644;DHT22;26931;43.498;-1.506;2022-11-15T01:50:47;14.60;95.90
34644;DHT22;26931;43.498;-1.506;2022-11-15T01:53:13;14.70;96.00
34644;DHT22;26931;43.498;-1.506;2022-11-15T01:55:39;14.60;96.10
34644;DHT22;26931;43.498;-1.506;2022-11-15T01:58:05;14.60;96.00
34644;DHT22;26931;43.498;-1.506;2022-11-15T02:00:32;14.70;96.10
34644;DHT22;26931;43.498;-1.506;2022-11-15T02:02:58;14.70;96.00
34644;DHT22;26931;43.498;-1.506;2022-11-15T02:05:24;14.70;96.00
34644;DHT22;26931;43.498;-1.506;2022-11-15T02:07:50;14.80;95.90
34644;DHT22;26931;43.498;-1.506;2022-11-15T02:10:21;14.80;96.00
34644;DHT22;26931;43.498;-1.506;2022-11-15T02:12:49;14.80;96.00
34644;DHT22;26931;43.498;-1.506;2022-11-15T02:15:15;14.80;95.80
34644;DHT22;26931;43.498;-1.506;2022-11-15T02:20:58;14.90;95.70
34644;DHT22;26931;43.498;-1.506;2022-11-15T02:29:10;15.00;95.50
34644;DHT22;26931;43.498;-1.506;2022-11-15T02:34:47;15.00;95.40
34644;DHT22;26931;43.498;-1.506;2022-11-15T02:37:55;15.00;95.40
34644;DHT22;26931;43.498;-1.506;2022-11-15T02:40:27;14.90;95.30
34644;DHT22;26931;43.498;-1.506;2022-11-15T02:43:04;15.00;95.30
34644;DHT22;26931;43.498;-1.506;2022-11-15T02:45:56;15.00;95.30
34644;DHT22;26931;43.498;-1.506;2022-11-15T02:48:24;15.00;95.30
34644;DHT22;26931;43.498;-1.506;2022-11-15T02:50:51;14.90;95.10
34644;DHT22;26931;43.498;-1.506;2022-11-15T02:53:17;14.90;95.30
34644;DHT22;26931;43.498;-1.506;2022-11-15T02:55:50;15.00;95.10
34644;DHT22;26931;43.498;-1.506;2022-11-15T03:06:46;15.10;94.80
34644;DHT22;26931;43.498;-1.506;2022-11-15T03:12:14;15.10;94.80
34644;DHT22;26931;43.498;-1.506;2022-11-15T03:14:58;15.00;94.80
34644;DHT22;26931;43.498;-1.506;2022-11-15T03:17:28;15.00;94.90
34644;DHT22;26931;43.498;-1.506;2022-11-15T03:19:59;15.00;94.90
34644;DHT22;26931;43.498;-1.506;2022-11-15T03:22:29;15.00;94.90
34644;DHT22;26931;43.498;-1.506;2022-11-15T03:24:58;15.10;94.90
34644;DHT22;26931;43.498;-1.506;2022-11-15T03:27:30;15.10;94.80
34644;DHT22;26931;43.498;-1.506;2022-11-15T03:30:00;15.20;94.70
34644;DHT22;26931;43.498;-1.506;2022-11-15T03:32:30;15.10;94.80
34644;DHT22;26931;43.498;-1.506;2022-11-15T03:35:12;15.10;94.80
34644;DHT22;26931;43.498;-1.506;2022-11-15T03:40:29;15.00;94.90
34644;DHT22;26931;43.498;-1.506;2022-11-15T03:46:40;15.00;95.00
34644;DHT22;26931;43.498;-1.506;2022-11-15T03:49:15;15.10;94.80
34644;DHT22;26931;43.498;-1.506;2022-11-15T03:51:42;15.10;94.70
34644;DHT22;26931;43.498;-1.506;2022-11-15T03:54:08;15.10;94.60
34644;DHT22;26931;43.498;-1.506;2022-11-15T03:56:34;15.10;94.70
34644;DHT22;26931;43.498;-1.506;2022-11-15T03:59:00;15.10;94.70
34644;DHT22;26931;43.498;-1.506;2022-11-15T04:01:26;15.10;94.60
34644;DHT22;26931;43.498;-1.506;2022-11-15T04:03:52;15.20;94.40
34644;DHT22;26931;43.498;-1.506;2022-11-15T04:06:17;15.30;94.10
34644;DHT22;26931;43.498;-1.506;2022-11-15T04:08:43;15.40;93.70
34644;DHT22;26931;43.498;-1.506;2022-11-15T04:11:09;15.50;93.20
34644;DHT22;26931;43.498;-1.506;2022-11-15T04:13:34;15.60;92.70
34644;DHT22;26931;43.498;-1.506;2022-11-15T04:16:01;15.70;92.40
34644;DHT22;26931;43.498;-1.506;2022-11-15T04:18:27;15.70;92.30
34644;DHT22;26931;43.498;-1.506;2022-11-15T04:20:53;15.80;92.10
34644;DHT22;26931;43.498;-1.506;2022-11-15T04:23:37;15.80;91.90
34644;DHT22;26931;43.498;-1.506;2022-11-15T04:26:22;15.80;91.80
34644;DHT22;26931;43.498;-1.506;2022-11-15T04:28:48;15.90;91.70
34644;DHT22;26931;43.498;-1.506;2022-11-15T04:31:32;15.80;91.60
34644;DHT22;26931;43.498;-1.506;2022-11-15T04:33:58;15.80;91.60
34644;DHT22;26931;43.498;-1.506;2022-11-15T04:36:24;15.90;91.60
34644;DHT22;26931;43.498;-1.506;2022-11-15T04:39:09;15.90;91.60
34644;DHT22;26931;43.498;-1.506;2022-11-15T04:41:35;15.90;91.40
34644;DHT22;26931;43.498;-1.506;2022-11-15T04:44:00;16.00;91.20
34644;DHT22;26931;43.498;-1.506;2022-11-15T04:46:27;16.10;91.00
34644;DHT22;26931;43.498;-1.506;2022-11-15T04:48:53;16.10;90.80
34644;DHT22;26931;43.498;-1.506;2022-11-15T04:51:19;16.20;90.60
34644;DHT22;26931;43.498;-1.506;2022-11-15T04:53:44;16.30;90.30
34644;DHT22;26931;43.498;-1.506;2022-11-15T04:56:10;16.40;90.00
34644;DHT22;26931;43.498;-1.506;2022-11-15T04:58:36;16.50;89.50
34644;DHT22;26931;43.498;-1.506;2022-11-15T05:01:13;16.60;88.60
34644;DHT22;26931;43.498;-1.506;2022-11-15T05:03:43;16.70;87.50
34644;DHT22;26931;43.498;-1.506;2022-11-15T05:06:28;16.70;86.80
34644;DHT22;26931;43.498;-1.506;2022-11-15T05:08:56;16.80;86.30
34644;DHT22;26931;43.498;-1.506;2022-11-15T05:11:22;16.90;85.70
34644;DHT22;26931;43.498;-1.506;2022-11-15T05:13:48;17.00;85.20
34644;DHT22;26931;43.498;-1.506;2022-11-15T05:16:14;17.00;84.90
34644;DHT22;26931;43.498;-1.506;2022-11-15T05:18:40;17.10;84.50
34644;DHT22;26931;43.498;-1.506;2022-11-15T05:21:11;17.10;84.10
34644;DHT22;26931;43.498;-1.506;2022-11-15T05:23:37;17.10;83.70
34644;DHT22;26931;43.498;-1.506;2022-11-15T05:26:04;17.20;83.40
34644;DHT22;26931;43.498;-1.506;2022-11-15T05:28:31;17.20;83.30
34644;DHT22;26931;43.498;-1.506;2022-11-15T05:31:05;17.20;83.20
34644;DHT22;26931;43.498;-1.506;2022-11-15T05:33:32;17.20;82.90
34644;DHT22;26931;43.498;-1.506;2022-11-15T05:36:12;17.30;82.80
34644;DHT22;26931;43.498;-1.506;2022-11-15T05:38:38;17.30;82.50
34644;DHT22;26931;43.498;-1.506;2022-11-15T05:41:05;17.30;82.60
34644;DHT22;26931;43.498;-1.506;2022-11-15T05:43:33;17.20;82.60
34644;DHT22;26931;43.498;-1.506;2022-11-15T05:46:00;17.20;82.50
34644;DHT22;26931;43.498;-1.506;2022-11-15T05:48:27;17.30;82.50
34644;DHT22;26931;43.498;-1.506;2022-11-15T05:50:53;17.30;82.40
34644;DHT22;26931;43.498;-1.506;2022-11-15T05:53:20;17.30;82.30
34644;DHT22;26931;43.498;-1.506;2022-11-15T05:55:47;17.30;82.10
34644;DHT22;26931;43.498;-1.506;2022-11-15T05:58:13;17.30;82.00
34644;DHT22;26931;43.498;-1.506;2022-11-15T06:00:39;17.30;81.70
34644;DHT22;26931;43.498;-1.506;2022-11-15T06:03:05;17.40;81.50
34644;DHT22;26931;43.498;-1.506;2022-11-15T06:05:31;17.40;81.20
34644;DHT22;26931;43.498;-1.506;2022-11-15T06:07:59;17.40;81.10
34644;DHT22;26931;43.498;-1.506;2022-11-15T06:10:25;17.40;81.00
34644;DHT22;26931;43.498;-1.506;2022-11-15T06:13:02;17.40;80.90
34644;DHT22;26931;43.498;-1.506;2022-11-15T06:15:28;17.40;80.70
34644;DHT22;26931;43.498;-1.506;2022-11-15T06:17:57;17.40;80.70
34644;DHT22;26931;43.498;-1.506;2022-11-15T06:20:28;17.40;80.60
34644;DHT22;26931;43.498;-1.506;2022-11-15T06:22:58;17.50;80.60
34644;DHT22;26931;43.498;-1.506;2022-11-15T06:25:24;17.50;80.50
34644;DHT22;26931;43.498;-1.506;2022-11-15T06:27:57;17.50;80.30
34644;DHT22;26931;43.498;-1.506;2022-11-15T06:30:25;17.50;80.00
34644;DHT22;26931;43.498;-1.506;2022-11-15T06:32:51;17.50;79.80
34644;DHT22;26931;43.498;-1.506;2022-11-15T06:35:17;17.50;79.50
34644;DHT22;26931;43.498;-1.506;2022-11-15T06:37:42;17.60;79.50
34644;DHT22;26931;43.498;-1.506;2022-11-15T06:40:09;17.60;79.30
34644;DHT22;26931;43.498;-1.506;2022-11-15T06:42:35;17.60;79.20
34644;DHT22;26931;43.498;-1.506;2022-11-15T06:45:01;17.60;78.80
34644;DHT22;26931;43.498;-1.506;2022-11-15T06:47:27;17.60;79.30
34644;DHT22;26931;43.498;-1.506;2022-11-15T06:49:52;17.70;78.40
34644;DHT22;26931;43.498;-1.506;2022-11-15T06:52:18;17.70;78.20
34644;DHT22;26931;43.498;-1.506;2022-11-15T06:54:45;17.70;77.90
34644;DHT22;26931;43.498;-1.506;2022-11-15T06:57:11;17.70;77.80
34644;DHT22;26931;43.498;-1.506;2022-11-15T06:59:37;17.70;77.60
34644;DHT22;26931;43.498;-1.506;2022-11-15T07:02:03;17.70;77.50
34644;DHT22;26931;43.498;-1.506;2022-11-15T07:04:29;17.80;77.30
34644;DHT22;26931;43.498;-1.506;2022-11-15T07:06:55;17.80;77.20
34644;DHT22;26931;43.498;-1.506;2022-11-15T07:09:20;17.70;77.20
34644;DHT22;26931;43.498;-1.506;2022-11-15T07:11:46;17.80;77.10
34644;DHT22;26931;43.498;-1.506;2022-11-15T07:14:12;17.80;76.80
34644;DHT22;26931;43.498;-1.506;2022-11-15T07:16:38;17.80;76.80
34644;DHT22;26931;43.498;-1.506;2022-11-15T07:19:04;17.80;76.70
34644;DHT22;26931;43.498;-1.506;2022-11-15T07:21:30;17.80;76.60
34644;DHT22;26931;43.498;-1.506;2022-11-15T07:23:56;17.80;76.50
34644;DHT22;26931;43.498;-1.506;2022-11-15T07:26:22;17.80;76.30
34644;DHT22;26931;43.498;-1.506;2022-11-15T07:28:48;17.80;76.30
34644;DHT22;26931;43.498;-1.506;2022-11-15T07:31:14;17.80;76.50
34644;DHT22;26931;43.498;-1.506;2022-11-15T07:33:40;17.80;76.40
34644;DHT22;26931;43.498;-1.506;2022-11-15T07:36:07;17.80;76.30
34644;DHT22;26931;43.498;-1.506;2022-11-15T07:38:34;18.00;76.30
34644;DHT22;26931;43.498;-1.506;2022-11-15T07:41:03;17.80;76.10
34644;DHT22;26931;43.498;-1.506;2022-11-15T07:43:29;17.80;76.10
34644;DHT22;26931;43.498;-1.506;2022-11-15T07:45:58;17.90;76.10
34644;DHT22;26931;43.498;-1.506;2022-11-15T07:48:24;17.90;76.10
34644;DHT22;26931;43.498;-1.506;2022-11-15T07:50:50;17.90;76.10
34644;DHT22;26931;43.498;-1.506;2022-11-15T07:53:17;17.90;76.00
34644;DHT22;26931;43.498;-1.506;2022-11-15T07:55:43;18.00;76.00
34644;DHT22;26931;43.498;-1.506;2022-11-15T07:58:10;18.00;76.00
34644;DHT22;26931;43.498;-1.506;2022-11-15T08:00:37;18.00;76.10
34644;DHT22;26931;43.498;-1.506;2022-11-15T08:03:04;18.00;76.00
34644;DHT22;26931;43.498;-1.506;2022-11-15T08:05:30;18.00;75.80
34644;DHT22;26931;43.498;-1.506;2022-11-15T08:07:57;18.10;75.60
34644;DHT22;26931;43.498;-1.506;2022-11-15T08:10:23;18.30;75.70
34644;DHT22;26931;43.498;-1.506;2022-11-15T08:13:00;17.90;75.40
34644;DHT22;26931;43.498;-1.506;2022-11-15T08:15:27;18.10;75.50
34644;DHT22;26931;43.498;-1.506;2022-11-15T08:17:57;18.10;75.20
34644;DHT22;26931;43.498;-1.506;2022-11-15T08:20:25;18.20;75.00
34644;DHT22;26931;43.498;-1.506;2022-11-15T08:22:51;18.20;74.70
34644;DHT22;26931;43.498;-1.506;2022-11-15T08:25:18;18.30;74.40
34644;DHT22;26931;43.498;-1.506;2022-11-15T08:27:44;18.30;74.10
34644;DHT22;26931;43.498;-1.506;2022-11-15T08:30:11;18.30;74.00
34644;DHT22;26931;43.498;-1.506;2022-11-15T08:32:37;18.20;73.90
34644;DHT22;26931;43.498;-1.506;2022-11-15T08:35:03;18.40;73.80
34644;DHT22;26931;43.498;-1.506;2022-11-15T08:37:30;18.40;73.70
34644;DHT22;26931;43.498;-1.506;2022-11-15T08:39:56;18.40;73.70
34644;DHT22;26931;43.498;-1.506;2022-11-15T08:42:22;18.40;73.70
34644;DHT22;26931;43.498;-1.506;2022-11-15T08:44:48;18.40;73.40
34644;DHT22;26931;43.498;-1.506;2022-11-15T08:47:14;18.50;73.20
34644;DHT22;26931;43.498;-1.506;2022-11-15T08:49:40;18.60;73.00
34644;DHT22;26931;43.498;-1.506;2022-11-15T08:52:05;18.60;72.90
34644;DHT22;26931;43.498;-1.506;2022-11-15T08:54:32;18.60;73.10
34644;DHT22;26931;43.498;-1.506;2022-11-15T08:56:58;18.60;73.10
34644;DHT22;26931;43.498;-1.506;2022-11-15T08:59:24;18.60;73.10
34644;DHT22;26931;43.498;-1.506;2022-11-15T09:01:50;18.60;73.20
34644;DHT22;26931;43.498;-1.506;2022-11-15T09:04:16;18.60;73.10
34644;DHT22;26931;43.498;-1.506;2022-11-15T09:06:42;18.70;72.90
34644;DHT22;26931;43.498;-1.506;2022-11-15T09:09:08;18.70;72.70
34644;DHT22;26931;43.498;-1.506;2022-11-15T09:11:34;18.70;72.50
34644;DHT22;26931;43.498;-1.506;2022-11-15T09:14:00;18.70;72.50
34644;DHT22;26931;43.498;-1.506;2022-11-15T09:16:26;18.70;72.50
34644;DHT22;26931;43.498;-1.506;2022-11-15T09:18:53;18.70;72.60
34644;DHT22;26931;43.498;-1.506;2022-11-15T09:21:20;18.70;72.70
34644;DHT22;26931;43.498;-1.506;2022-11-15T09:23:46;19.00;72.90
34644;DHT22;26931;43.498;-1.506;2022-11-15T09:26:13;18.80;72.70
34644;DHT22;26931;43.498;-1.506;2022-11-15T09:28:39;18.80;72.70
34644;DHT22;26931;43.498;-1.506;2022-11-15T09:31:07;18.80;72.70
34644;DHT22;26931;43.498;-1.506;2022-11-15T09:33:33;18.80;72.60
34644;DHT22;26931;43.498;-1.506;2022-11-15T09:36:02;18.90;72.60
34644;DHT22;26931;43.498;-1.506;2022-11-15T09:38:28;19.00;72.50
34644;DHT22;26931;43.498;-1.506;2022-11-15T09:41:16;19.10;72.20
34644;DHT22;26931;43.498;-1.506;2022-11-15T09:47:05;18.90;72.90
34644;DHT22;26931;43.498;-1.506;2022-11-15T09:49:34;19.00;73.70
34644;DHT22;26931;43.498;-1.506;2022-11-15T09:52:00;18.90;74.30
34644;DHT22;26931;43.498;-1.506;2022-11-15T09:54:35;18.80;74.80
34644;DHT22;26931;43.498;-1.506;2022-11-15T09:57:11;18.90;75.60
34644;DHT22;26931;43.498;-1.506;2022-11-15T10:00:18;18.80;76.40
34644;DHT22;26931;43.498;-1.506;2022-11-15T10:06:01;18.80;77.60
34644;DHT22;26931;43.498;-1.506;2022-11-15T10:08:50;18.80;77.70
34644;DHT22;26931;43.498;-1.506;2022-11-15T10:11:22;18.80;78.00
34644;DHT22;26931;43.498;-1.506;2022-11-15T10:13:52;18.80;78.10
34644;DHT22;26931;43.498;-1.506;2022-11-15T10:24:36;18.60;79.10
34644;DHT22;26931;43.498;-1.506;2022-11-15T10:27:12;18.60;79.00
34644;DHT22;26931;43.498;-1.506;2022-11-15T10:29:49;18.80;79.20
34644;DHT22;26931;43.498;-1.506;2022-11-15T10:32:19;18.80;79.10
34644;DHT22;26931;43.498;-1.506;2022-11-15T10:34:47;18.80;79.00
34644;DHT22;26931;43.498;-1.506;2022-11-15T10:37:13;18.80;78.80
34644;DHT22;26931;43.498;-1.506;2022-11-15T10:39:40;18.80;78.50
34644;DHT22;26931;43.498;-1.506;2022-11-15T10:42:26;18.90;78.50
34644;DHT22;26931;43.498;-1.506;2022-11-15T10:44:53;18.90;78.60
34644;DHT22;26931;43.498;-1.506;2022-11-15T10:47:30;18.90;78.50
34644;DHT22;26931;43.498;-1.506;2022-11-15T10:50:30;18.90;78.80
34644;DHT22;26931;43.498;-1.506;2022-11-15T10:52:57;18.90;79.30
34644;DHT22;26931;43.498;-1.506;2022-11-15T10:55:27;18.80;79.50
34644;DHT22;26931;43.498;-1.506;2022-11-15T10:58:02;18.80;79.90
34644;DHT22;26931;43.498;-1.506;2022-11-15T11:00:40;18.80;80.10
34644;DHT22;26931;43.498;-1.506;2022-11-15T11:03:37;18.80;80.30
34644;DHT22;26931;43.498;-1.506;2022-11-15T11:06:09;18.90;79.80
34644;DHT22;26931;43.498;-1.506;2022-11-15T11:08:35;18.80;79.10
34644;DHT22;26931;43.498;-1.506;2022-11-15T11:11:03;18.90;78.40
34644;DHT22;26931;43.498;-1.506;2022-11-15T11:16:38;19.10;77.30
34644;DHT22;26931;43.498;-1.506;2022-11-15T11:35:13;19.40;75.40
34644;DHT22;26931;43.498;-1.506;2022-11-15T11:38:07;19.40;75.50
34644;DHT22;26931;43.498;-1.506;2022-11-15T11:40:52;19.40;75.70
34644;DHT22;26931;43.498;-1.506;2022-11-15T11:43:39;19.40;75.80
34644;DHT22;26931;43.498;-1.506;2022-11-15T11:48:44;19.30;76.20
34644;DHT22;26931;43.498;-1.506;2022-11-15T11:51:28;19.30;76.60
34644;DHT22;26931;43.498;-1.506;2022-11-15T11:56:39;19.00;77.40
34644;DHT22;26931;43.498;-1.506;2022-11-15T11:59:13;19.00;78.10
34644;DHT22;26931;43.498;-1.506;2022-11-15T12:01:43;18.90;79.20
34644;DHT22;26931;43.498;-1.506;2022-11-15T12:15:10;18.70;83.20
34644;DHT22;26931;43.498;-1.506;2022-11-15T12:17:40;18.60;83.70
34644;DHT22;26931;43.498;-1.506;2022-11-15T12:20:30;18.60;84.40
34644;DHT22;26931;43.498;-1.506;2022-11-15T12:23:04;18.60;84.70
34644;DHT22;26931;43.498;-1.506;2022-11-15T12:25:51;18.60;84.70
34644;DHT22;26931;43.498;-1.506;2022-11-15T12:28:37;18.60;84.60
34644;DHT22;26931;43.498;-1.506;2022-11-15T12:31:11;18.70;84.30
34644;DHT22;26931;43.498;-1.506;2022-11-15T12:33:41;18.60;83.90
34644;DHT22;26931;43.498;-1.506;2022-11-15T12:38:53;18.60;83.70
34644;DHT22;26931;43.498;-1.506;2022-11-15T12:41:21;18.60;83.50
34644;DHT22;26931;43.498;-1.506;2022-11-15T12:43:48;18.60;83.40
34644;DHT22;26931;43.498;-1.506;2022-11-15T12:49:07;18.50;83.00
34644;DHT22;26931;43.498;-1.506;2022-11-15T12:59:56;18.70;82.30
34644;DHT22;26931;43.498;-1.506;2022-11-15T13:07:54;18.90;81.50
34644;DHT22;26931;43.498;-1.506;2022-11-15T13:12:57;19.00;80.80
34644;DHT22;26931;43.498;-1.506;2022-11-15T13:15:52;19.10;81.40
34644;DHT22;26931;43.498;-1.506;2022-11-15T13:18:34;19.20;80.50
34644;DHT22;26931;43.498;-1.506;2022-11-15T13:21:01;19.30;80.30
34644;DHT22;26931;43.498;-1.506;2022-11-15T13:23:52;19.30;80.30
34644;DHT22;26931;43.498;-1.506;2022-11-15T13:26:19;19.30;80.30
34644;DHT22;26931;43.498;-1.506;2022-11-15T13:28:49;19.40;80.30
34644;DHT22;26931;43.498;-1.506;2022-11-15T13:31:36;19.40;81.00
34644;DHT22;26931;43.498;-1.506;2022-11-15T13:34:30;19.40;80.30
34644;DHT22;26931;43.498;-1.506;2022-11-15T13:36:58;19.40;80.30
34644;DHT22;26931;43.498;-1.506;2022-11-15T13:39:30;19.50;80.30
34644;DHT22;26931;43.498;-1.506;2022-11-15T13:41:57;19.30;80.20
34644;DHT22;26931;43.498;-1.506;2022-11-15T13:44:31;19.50;80.40
34644;DHT22;26931;43.498;-1.506;2022-11-15T13:47:05;19.60;80.30
34644;DHT22;26931;43.498;-1.506;2022-11-15T13:49:32;19.60;80.20
34644;DHT22;26931;43.498;-1.506;2022-11-15T13:52:00;19.60;80.40
34644;DHT22;26931;43.498;-1.506;2022-11-15T13:54:57;19.60;80.30
34644;DHT22;26931;43.498;-1.506;2022-11-15T13:57:27;19.60;80.00
34644;DHT22;26931;43.498;-1.506;2022-11-15T14:00:03;19.60;79.90
34644;DHT22;26931;43.498;-1.506;2022-11-15T14:02:34;19.50;79.60
34644;DHT22;26931;43.498;-1.506;2022-11-15T14:05:18;19.70;79.50
34644;DHT22;26931;43.498;-1.506;2022-11-15T14:08:00;19.70;79.20
34644;DHT22;26931;43.498;-1.506;2022-11-15T14:10:34;19.80;79.00
34644;DHT22;26931;43.498;-1.506;2022-11-15T14:13:03;19.70;78.80
34644;DHT22;26931;43.498;-1.506;2022-11-15T14:15:35;19.70;78.60
34644;DHT22;26931;43.498;-1.506;2022-11-15T14:18:01;19.70;78.60
34644;DHT22;26931;43.498;-1.506;2022-11-15T14:20:36;19.60;78.70
34644;DHT22;26931;43.498;-1.506;2022-11-15T14:23:24;19.60;78.80
34644;DHT22;26931;43.498;-1.506;2022-11-15T14:25:55;19.60;78.80
34644;DHT22;26931;43.498;-1.506;2022-11-15T14:30:51;19.70;78.80
34644;DHT22;26931;43.498;-1.506;2022-11-15T14:33:19;19.60;79.00
34644;DHT22;26931;43.498;-1.506;2022-11-15T14:35:45;19.60;79.10
34644;DHT22;26931;43.498;-1.506;2022-11-15T14:38:12;19.60;79.20
34644;DHT22;26931;43.498;-1.506;2022-11-15T14:40:38;19.60;79.30
34644;DHT22;26931;43.498;-1.506;2022-11-15T14:43:04;19.60;79.50
34644;DHT22;26931;43.498;-1.506;2022-11-15T14:45:30;19.50;79.50
34644;DHT22;26931;43.498;-1.506;2022-11-15T14:47:56;19.50;79.60
34644;DHT22;26931;43.498;-1.506;2022-11-15T14:50:22;19.50;79.80
34644;DHT22;26931;43.498;-1.506;2022-11-15T14:52:48;19.50;79.90
34644;DHT22;26931;43.498;-1.506;2022-11-15T14:57:49;19.40;81.30
34644;DHT22;26931;43.498;-1.506;2022-11-15T15:00:15;19.30;82.40
34644;DHT22;26931;43.498;-1.506;2022-11-15T15:02:43;19.30;84.10
34644;DHT22;26931;43.498;-1.506;2022-11-15T15:05:37;19.30;85.70
34644;DHT22;26931;43.498;-1.506;2022-11-15T15:08:03;19.30;87.50
34644;DHT22;26931;43.498;-1.506;2022-11-15T15:10:38;19.20;88.10
34644;DHT22;26931;43.498;-1.506;2022-11-15T15:13:05;19.20;89.30
34644;DHT22;26931;43.498;-1.506;2022-11-15T15:15:36;19.10;89.90
34644;DHT22;26931;43.498;-1.506;2022-11-15T15:18:04;19.00;90.20
34644;DHT22;26931;43.498;-1.506;2022-11-15T15:20:31;18.90;90.50
34644;DHT22;26931;43.498;-1.506;2022-11-15T15:22:57;18.90;90.70
34644;DHT22;26931;43.498;-1.506;2022-11-15T15:25:28;18.80;90.80
34644;DHT22;26931;43.498;-1.506;2022-11-15T15:27:56;18.80;91.00
34644;DHT22;26931;43.498;-1.506;2022-11-15T15:30:23;18.70;91.10
34644;DHT22;26931;43.498;-1.506;2022-11-15T15:32:49;18.70;91.20
34644;DHT22;26931;43.498;-1.506;2022-11-15T15:35:16;18.60;91.30
34644;DHT22;26931;43.498;-1.506;2022-11-15T15:37:44;18.50;91.30
34644;DHT22;26931;43.498;-1.506;2022-11-15T15:40:21;18.50;91.40
34644;DHT22;26931;43.498;-1.506;2022-11-15T15:42:47;18.40;91.30
34644;DHT22;26931;43.498;-1.506;2022-11-15T15:45:14;18.30;91.30
34644;DHT22;26931;43.498;-1.506;2022-11-15T15:47:41;18.10;91.30
34644;DHT22;26931;43.498;-1.506;2022-11-15T15:50:21;17.90;91.50
34644;DHT22;26931;43.498;-1.506;2022-11-15T15:52:49;17.70;91.70
34644;DHT22;26931;43.498;-1.506;2022-11-15T15:55:16;17.50;92.00
34644;DHT22;26931;43.498;-1.506;2022-11-15T15:57:42;17.40;92.30
34644;DHT22;26931;43.498;-1.506;2022-11-15T16:00:09;17.30;92.50
34644;DHT22;26931;43.498;-1.506;2022-11-15T16:02:35;17.20;92.80
34644;DHT22;26931;43.498;-1.506;2022-11-15T16:05:00;17.10;93.00
34644;DHT22;26931;43.498;-1.506;2022-11-15T16:07:26;17.10;93.10
34644;DHT22;26931;43.498;-1.506;2022-11-15T16:09:55;17.00;93.20
34644;DHT22;26931;43.498;-1.506;2022-11-15T16:12:35;16.90;93.40
34644;DHT22;26931;43.498;-1.506;2022-11-15T16:15:02;16.80;93.50
34644;DHT22;26931;43.498;-1.506;2022-11-15T16:17:32;16.90;93.70
34644;DHT22;26931;43.498;-1.506;2022-11-15T16:19:59;16.70;93.80
34644;DHT22;26931;43.498;-1.506;2022-11-15T16:22:25;16.70;93.90
34644;DHT22;26931;43.498;-1.506;2022-11-15T16:24:51;16.70;94.00
34644;DHT22;26931;43.498;-1.506;2022-11-15T16:27:20;16.70;94.00
34644;DHT22;26931;43.498;-1.506;2022-11-15T16:29:46;16.70;94.00
34644;DHT22;26931;43.498;-1.506;2022-11-15T16:32:13;16.60;93.80
34644;DHT22;26931;43.498;-1.506;2022-11-15T16:34:39;16.60;93.80
34644;DHT22;26931;43.498;-1.506;2022-11-15T16:37:08;16.50;93.80
34644;DHT22;26931;43.498;-1.506;2022-11-15T16:39:39;16.50;93.80
34644;DHT22;26931;43.498;-1.506;2022-11-15T16:42:06;16.50;93.60
34644;DHT22;26931;43.498;-1.506;2022-11-15T16:44:32;16.40;93.40
34644;DHT22;26931;43.498;-1.506;2022-11-15T16:47:01;16.50;93.40
34644;DHT22;26931;43.498;-1.506;2022-11-15T16:49:27;16.50;93.30
34644;DHT22;26931;43.498;-1.506;2022-11-15T16:51:53;16.50;93.40
34644;DHT22;26931;43.498;-1.506;2022-11-15T16:54:18;16.50;93.40
34644;DHT22;26931;43.498;-1.506;2022-11-15T16:56:44;16.40;93.40
34644;DHT22;26931;43.498;-1.506;2022-11-15T16:59:15;16.40;93.90
34644;DHT22;26931;43.498;-1.506;2022-11-15T17:01:42;16.40;93.60
34644;DHT22;26931;43.498;-1.506;2022-11-15T17:04:16;16.40;93.50
34644;DHT22;26931;43.498;-1.506;2022-11-15T17:06:44;16.40;93.50
34644;DHT22;26931;43.498;-1.506;2022-11-15T17:09:19;16.40;93.50
34644;DHT22;26931;43.498;-1.506;2022-11-15T17:11:45;16.40;93.50
34644;DHT22;26931;43.498;-1.506;2022-11-15T17:14:11;16.30;93.50
34644;DHT22;26931;43.498;-1.506;2022-11-15T17:16:38;16.30;93.60